createdAt,value
2019-04-20T00:00:40.164Z,3.53
2019-04-20T00:03:03.404Z,2.93
2019-04-20T00:05:33.007Z,3.23
2019-04-20T00:08:08.985Z,2.90
2019-04-20T00:10:43.392Z,3.53
2019-04-20T00:13:16.346Z,3.03
2019-04-20T00:15:34.596Z,3.20
2019-04-20T00:18:06.803Z,2.80
2019-04-20T00:20:37.191Z,3.27
2019-04-20T00:23:19.761Z,3.00
2019-04-20T00:26:02.285Z,2.93
2019-04-20T00:28:35.233Z,2.80
2019-04-20T00:31:06.679Z,3.10
2019-04-20T00:33:36.386Z,3.27
2019-04-20T00:35:50.516Z,3.20
2019-04-20T00:38:21.045Z,3.10
2019-04-20T00:40:56.138Z,3.20
2019-04-20T00:43:26.249Z,3.27
2019-04-20T00:45:59.059Z,2.83
2019-04-20T00:48:35.289Z,3.47
2019-04-20T00:51:10.812Z,3.17
2019-04-20T00:53:31.380Z,3.03
2019-04-20T00:55:54.983Z,3.10
2019-04-20T00:58:31.662Z,3.27
2019-04-20T01:01:15.353Z,3.03
2019-04-20T01:03:39.394Z,3.40
2019-04-20T01:06:22.205Z,3.37
2019-04-20T01:08:42.280Z,3.03
2019-04-20T01:11:12.246Z,3.37
2019-04-20T01:13:46.109Z,3.40
2019-04-20T01:16:25.189Z,3.13
2019-04-20T01:18:43.722Z,3.40
2019-04-20T01:21:17.810Z,3.50
2019-04-20T01:23:50.773Z,3.10
2019-04-20T01:26:17.284Z,2.87
2019-04-20T01:28:59.065Z,3.43
2019-04-20T01:31:25.415Z,3.40
2019-04-20T01:33:55.033Z,3.43
2019-04-20T01:36:36.938Z,3.60
2019-04-20T01:39:00.188Z,3.40
2019-04-20T01:41:18.244Z,3.10
2019-04-20T01:43:48.080Z,3.20
2019-04-20T01:46:23.088Z,3.53
2019-04-20T01:48:48.201Z,3.87
2019-04-20T01:51:24.887Z,3.40
2019-04-20T01:54:08.285Z,3.53
2019-04-20T01:56:36.211Z,3.93
2019-04-20T01:59:16.441Z,3.30
2019-04-20T02:01:42.070Z,3.30
2019-04-20T02:04:15.746Z,3.90
2019-04-20T02:06:48.767Z,3.30
2019-04-20T02:09:17.215Z,4.07
2019-04-20T02:11:47.362Z,3.57
2019-04-20T02:14:23.271Z,3.63
2019-04-20T02:16:49.599Z,3.87
2019-04-20T02:19:32.005Z,3.50
2019-04-20T02:21:58.917Z,3.87
2019-04-20T02:24:17.717Z,3.90
2019-04-20T02:26:47.221Z,3.97
2019-04-20T02:29:40.706Z,4.03
2019-04-20T02:34:55.679Z,4.30
2019-04-20T02:42:34.934Z,4.13
2019-04-20T02:45:22.230Z,4.07
2019-04-20T02:47:35.772Z,3.77
2019-04-20T02:49:56.788Z,4.27
2019-04-20T02:52:48.634Z,4.10
2019-04-20T02:55:06.309Z,4.30
2019-04-20T02:57:33.352Z,4.20
2019-04-20T03:02:20.143Z,4.47
2019-04-20T03:04:39.139Z,4.60
2019-04-20T03:07:15.265Z,4.97
2019-04-20T03:09:50.506Z,4.63
2019-04-20T03:12:29.122Z,4.60
2019-04-20T03:14:47.350Z,4.50
2019-04-20T03:17:27.215Z,4.30
2019-04-20T03:19:47.398Z,4.43
2019-04-20T03:22:35.314Z,4.50
2019-04-20T03:24:56.588Z,4.07
2019-04-20T03:27:25.112Z,4.30
2019-04-20T03:29:56.209Z,4.57
2019-04-20T03:33:00.396Z,4.40
2019-04-20T03:35:12.249Z,4.00
2019-04-20T03:37:39.590Z,4.07
2019-04-20T03:39:56.893Z,4.30
2019-04-20T03:42:14.101Z,3.80
2019-04-20T03:44:48.922Z,4.60
2019-04-20T03:47:28.901Z,4.10
2019-04-20T03:50:06.227Z,4.47
2019-04-20T03:52:32.913Z,4.53
2019-04-20T03:55:18.757Z,3.90
2019-04-20T03:58:08.807Z,4.33
2019-04-20T04:00:50.794Z,4.60
2019-04-20T04:03:47.018Z,4.50
2019-04-20T04:06:07.842Z,4.53
2019-04-20T04:08:32.854Z,4.10
2019-04-20T04:11:12.450Z,5.10
2019-04-20T04:13:25.399Z,4.70
2019-04-20T04:15:59.344Z,4.93
2019-04-20T04:18:31.828Z,4.30
2019-04-20T04:21:01.931Z,4.40
2019-04-20T04:23:44.445Z,4.23
2019-04-20T04:26:12.663Z,4.37
2019-04-20T04:28:43.302Z,4.30
2019-04-20T04:31:34.600Z,4.17
2019-04-20T04:36:15.375Z,4.03
2019-04-20T04:38:55.186Z,4.43
2019-04-20T04:43:51.071Z,4.33
2019-04-20T04:46:01.757Z,4.37
2019-04-20T04:48:35.829Z,4.30
2019-04-20T04:51:08.980Z,4.70
2019-04-20T04:53:44.273Z,4.70
2019-04-20T04:56:07.303Z,4.97
2019-04-20T04:58:33.992Z,4.80
2019-04-20T05:01:08.323Z,4.40
2019-04-20T05:03:57.710Z,5.00
2019-04-20T05:06:26.402Z,5.07
2019-04-20T05:08:45.349Z,4.87
2019-04-20T05:11:11.063Z,4.80
2019-04-20T05:13:48.888Z,4.67
2019-04-20T05:16:27.846Z,5.00
2019-04-20T05:19:07.737Z,4.43
2019-04-20T05:21:30.192Z,4.87
2019-04-20T05:24:09.848Z,5.00
2019-04-20T05:26:42.402Z,4.60
2019-04-20T05:29:02.799Z,4.83
2019-04-20T05:31:32.680Z,4.90
2019-04-20T05:36:44.643Z,4.80
2019-04-20T05:39:25.223Z,4.67
2019-04-20T05:41:42.921Z,4.73
2019-04-20T05:44:12.390Z,4.93
2019-04-20T05:46:50.441Z,4.13
2019-04-20T05:49:23.410Z,4.70
2019-04-20T05:51:47.618Z,4.53
2019-04-20T05:54:23.411Z,4.90
2019-04-20T05:56:50.144Z,4.47
2019-04-20T05:59:24.237Z,4.30
2019-04-20T06:02:02.185Z,4.60
2019-04-20T06:04:28.535Z,4.40
2019-04-20T06:06:55.402Z,4.13
2019-04-20T06:09:28.244Z,4.20
2019-04-20T06:12:07.582Z,4.40
2019-04-20T06:14:39.400Z,4.47
2019-04-20T06:17:23.838Z,4.10
2019-04-20T06:19:44.220Z,4.07
2019-04-20T06:22:31.235Z,4.60
2019-04-20T06:25:10.071Z,4.10
2019-04-20T06:27:31.185Z,4.33
2019-04-20T06:29:55.973Z,5.77
2019-04-20T06:33:18.945Z,6.30
2019-04-20T06:35:57.600Z,5.10
2019-04-20T06:38:27.979Z,5.43
2019-04-20T06:43:04.142Z,5.73
2019-04-20T06:45:45.787Z,5.80
2019-04-20T06:48:20.370Z,4.67
2019-04-20T06:50:38.470Z,5.57
2019-04-20T06:53:28.555Z,5.47
2019-04-20T06:55:48.475Z,4.90
2019-04-20T06:58:38.177Z,5.43
2019-04-20T07:00:46.611Z,5.03
2019-04-20T07:03:37.286Z,5.03
2019-04-20T07:06:00.693Z,4.53
2019-04-20T07:08:37.332Z,5.10
2019-04-20T07:10:57.832Z,5.00
2019-04-20T07:13:15.518Z,5.00
2019-04-20T07:15:49.422Z,6.23
2019-04-20T07:18:31.291Z,4.97
2019-04-20T07:21:03.636Z,5.17
2019-04-20T07:23:47.744Z,5.57
2019-04-20T07:26:01.895Z,5.67
2019-04-20T07:28:35.616Z,5.60
2019-04-20T07:31:05.609Z,5.30
2019-04-20T07:33:32.248Z,5.47
2019-04-20T07:36:04.050Z,5.10
2019-04-20T07:38:40.544Z,5.17
2019-04-20T07:41:01.772Z,5.40
2019-04-20T07:43:34.866Z,5.43
2019-04-20T07:46:09.329Z,5.10
2019-04-20T07:48:31.143Z,4.53
2019-04-20T07:50:55.507Z,5.07
2019-04-20T07:53:30.661Z,5.50
2019-04-20T07:56:04.696Z,5.50
2019-04-20T07:58:28.300Z,5.40
2019-04-20T08:01:16.373Z,5.43
2019-04-20T08:03:43.917Z,5.60
2019-04-20T08:06:21.234Z,5.30
2019-04-20T08:08:57.427Z,4.70
2019-04-20T08:11:36.599Z,5.20
2019-04-20T08:14:14.764Z,5.90
2019-04-20T08:19:04.152Z,5.10
2019-04-20T08:21:39.173Z,4.63
2019-04-20T08:24:07.421Z,5.10
2019-04-20T08:26:23.322Z,5.37
2019-04-20T08:28:56.917Z,5.43
2019-04-20T08:31:35.851Z,5.07
2019-04-20T08:36:47.931Z,5.10
2019-04-20T08:41:53.467Z,5.20
2019-04-20T08:44:35.523Z,5.00
2019-04-20T08:47:01.355Z,4.93
2019-04-20T08:49:26.282Z,4.77
2019-04-20T08:52:00.061Z,5.13
2019-04-20T08:54:18.046Z,5.50
2019-04-20T08:56:38.996Z,4.40
2019-04-20T08:59:00.098Z,4.73
2019-04-20T09:01:33.766Z,4.53
2019-04-20T09:04:08.847Z,4.77
2019-04-20T09:06:41.815Z,4.40
2019-04-20T09:09:31.819Z,4.67
2019-04-20T09:11:49.629Z,4.50
2019-04-20T09:14:21.319Z,3.93
2019-04-20T09:16:57.011Z,4.77
2019-04-20T09:19:41.735Z,4.90
2019-04-20T09:22:06.423Z,4.70
2019-04-20T09:24:43.523Z,4.13
2019-04-20T09:27:08.766Z,4.10
2019-04-20T09:29:38.161Z,3.93
2019-04-20T09:32:21.280Z,3.87
2019-04-20T09:34:57.017Z,4.27
2019-04-20T09:37:41.291Z,5.00
2019-04-20T09:40:00.856Z,4.43
2019-04-20T09:42:12.581Z,4.20
2019-04-20T09:44:46.175Z,4.20
2019-04-20T09:47:12.383Z,4.33
2019-04-20T09:49:51.938Z,4.00
2019-04-20T09:52:28.264Z,4.10
2019-04-20T09:54:59.380Z,4.87
2019-04-20T09:57:33.539Z,4.27
2019-04-20T10:00:01.700Z,4.70
2019-04-20T10:02:23.152Z,4.70
2019-04-20T10:04:44.747Z,4.13
2019-04-20T10:07:17.956Z,4.50
2019-04-20T10:09:45.644Z,4.53
2019-04-20T10:12:15.669Z,4.80
2019-04-20T10:14:44.883Z,4.93
2019-04-20T10:17:13.848Z,4.53
2019-04-20T10:19:43.672Z,4.60
2019-04-20T10:22:13.268Z,4.90
2019-04-20T10:24:42.437Z,4.67
2019-04-20T10:27:12.615Z,4.40
2019-04-20T10:29:41.743Z,4.27
2019-04-20T10:32:14.195Z,5.00
2019-04-20T10:35:13.113Z,4.17
2019-04-20T10:37:55.572Z,4.97
2019-04-20T10:40:38.660Z,5.23
2019-04-20T10:42:56.991Z,5.07
2019-04-20T10:45:26.704Z,4.60
2019-04-20T10:47:56.900Z,5.10
2019-04-20T10:50:27.084Z,4.80
2019-04-20T10:52:56.128Z,4.97
2019-04-20T10:55:29.362Z,4.57
2019-04-20T10:57:59.646Z,4.80
2019-04-20T11:00:44.025Z,5.20
2019-04-20T11:03:15.741Z,4.40
2019-04-20T11:05:46.803Z,4.80
2019-04-20T11:08:16.881Z,4.80
2019-04-20T11:10:55.448Z,4.30
2019-04-20T11:13:17.205Z,5.03
2019-04-20T11:15:46.449Z,4.97
2019-04-20T11:18:15.529Z,5.50
2019-04-20T11:20:45.598Z,4.60
2019-04-20T11:23:15.836Z,5.25
2019-04-20T11:25:46.295Z,4.87
2019-04-20T11:28:16.626Z,5.17
2019-04-20T11:30:58.514Z,4.80
2019-04-20T11:33:27.824Z,4.58
2019-04-20T11:35:57.152Z,4.78
2019-04-20T11:38:26.170Z,5.00
2019-04-20T11:41:09.517Z,4.62
2019-04-20T11:46:54.932Z,4.50
2019-04-20T11:49:25.704Z,4.90
2019-04-20T11:51:55.309Z,4.62
2019-04-20T11:54:24.414Z,4.62
2019-04-20T11:56:53.402Z,4.70
2019-04-20T11:59:23.132Z,4.53
2019-04-20T12:02:01.982Z,4.97
2019-04-20T12:04:39.443Z,4.90
2019-04-20T12:06:59.234Z,4.28
2019-04-20T12:09:29.319Z,4.42
2019-04-20T12:12:08.817Z,5.30
2019-04-20T12:14:28.853Z,4.50
2019-04-20T12:16:57.727Z,4.40
2019-04-20T12:19:27.049Z,4.62
2019-04-20T12:21:56.033Z,5.42
2019-04-20T12:24:24.902Z,4.60
2019-04-20T12:26:54.574Z,4.80
2019-04-20T12:29:23.807Z,4.42
2019-04-20T12:31:56.296Z,4.67
2019-04-20T12:34:24.546Z,4.78
2019-04-20T12:36:53.750Z,4.53
2019-04-20T12:39:22.641Z,5.28
2019-04-20T12:41:56.494Z,4.60
2019-04-20T12:44:22.063Z,4.70
2019-04-20T12:46:52.010Z,4.42
2019-04-20T12:49:21.074Z,4.25
2019-04-20T12:51:54.660Z,4.95
2019-04-20T12:54:20.759Z,5.40
2019-04-20T12:57:04.787Z,5.05
2019-04-20T12:59:33.709Z,4.72
2019-04-20T13:02:02.591Z,4.70
2019-04-20T13:04:31.466Z,4.42
2019-04-20T13:07:01.776Z,4.90
2019-04-20T13:09:34.621Z,4.50
2019-04-20T13:12:11.704Z,4.58
2019-04-20T13:14:44.386Z,4.40
2019-04-20T13:17:14.533Z,4.83
2019-04-20T13:19:44.973Z,4.55
2019-04-20T13:22:14.816Z,4.37
2019-04-20T13:24:45.127Z,4.72
2019-04-20T13:27:14.391Z,3.95
2019-04-20T13:29:46.150Z,4.60
2019-04-20T13:32:13.985Z,4.60
2019-04-20T13:34:42.816Z,4.75
2019-04-20T13:37:11.688Z,4.42
2019-04-20T13:39:40.742Z,4.12
2019-04-20T13:42:16.049Z,4.50
2019-04-20T13:44:41.106Z,3.83
2019-04-20T13:47:10.118Z,3.50
2019-04-20T13:49:39.008Z,3.80
2019-04-20T13:52:08.760Z,3.90
2019-04-20T13:54:38.054Z,3.80
2019-04-20T13:57:08.539Z,3.80
2019-04-20T13:59:44.068Z,3.85
2019-04-20T14:02:33.079Z,3.95
2019-04-20T14:05:04.525Z,3.50
2019-04-20T14:07:35.551Z,3.75
2019-04-20T14:10:06.713Z,4.22
2019-04-20T14:12:38.844Z,3.80
2019-04-20T14:15:09.089Z,3.75
2019-04-20T14:17:39.133Z,3.47
2019-04-20T14:20:13.203Z,4.17
2019-04-20T14:22:39.243Z,3.77
2019-04-20T14:25:09.071Z,3.37
2019-04-20T14:27:40.074Z,4.00
2019-04-20T14:30:09.061Z,3.72
2019-04-20T14:32:38.886Z,3.60
2019-04-20T14:35:09.046Z,3.40
2019-04-20T14:37:39.360Z,4.00
2019-04-20T14:40:10.617Z,3.77
2019-04-20T14:42:46.397Z,3.55
2019-04-20T14:45:10.866Z,3.47
2019-04-20T14:47:41.562Z,3.55
2019-04-20T14:50:13.644Z,3.65
2019-04-20T14:52:43.735Z,3.33
2019-04-20T14:55:15.699Z,3.17
2019-04-20T14:57:43.695Z,3.58
2019-04-20T15:00:31.908Z,3.37
2019-04-20T15:03:03.836Z,3.15
2019-04-20T15:05:33.103Z,3.08
2019-04-20T15:08:10.008Z,3.45
2019-04-20T15:10:38.891Z,3.50
2019-04-20T15:13:08.467Z,3.35
2019-04-20T15:15:38.771Z,3.22
2019-04-20T15:18:11.307Z,3.33
2019-04-20T15:20:42.008Z,3.52
2019-04-20T15:23:47.898Z,3.05
2019-04-20T15:26:18.420Z,3.37
2019-04-20T15:28:48.340Z,4.08
2019-04-20T15:31:18.389Z,3.95
2019-04-20T15:33:48.858Z,4.15
2019-04-20T15:36:20.574Z,3.60
2019-04-20T15:38:49.510Z,3.47
2019-04-20T15:41:18.635Z,3.55
2019-04-20T15:43:48.989Z,2.70
2019-04-20T15:46:19.390Z,3.27
2019-04-20T15:48:50.122Z,3.00
2019-04-20T15:51:19.564Z,3.10
2019-04-20T15:53:49.829Z,2.90
2019-04-20T15:56:20.616Z,3.02
2019-04-20T15:58:50.450Z,3.20
2019-04-20T16:01:22.652Z,3.12
2019-04-20T16:03:57.225Z,3.30
2019-04-20T16:06:27.325Z,3.37
2019-04-20T16:08:59.901Z,3.13
2019-04-20T16:11:30.972Z,2.93
2019-04-20T16:14:01.569Z,3.12
2019-04-20T16:16:33.898Z,2.57
2019-04-20T16:19:10.274Z,2.93
2019-04-20T16:21:37.167Z,3.00
2019-04-20T16:24:06.777Z,3.00
2019-04-20T16:26:53.580Z,3.10
2019-04-20T16:29:23.904Z,3.07
2019-04-20T16:31:54.230Z,2.97
2019-04-20T16:34:51.033Z,3.30
2019-04-20T16:37:20.149Z,3.57
2019-04-20T16:39:50.396Z,3.00
2019-04-20T16:42:22.327Z,3.40
2019-04-20T16:44:51.716Z,3.03
2019-04-20T16:47:22.011Z,3.00
2019-04-20T16:49:51.241Z,3.10
2019-04-20T16:52:21.178Z,2.53
2019-04-20T16:54:50.681Z,2.77
2019-04-20T16:57:21.370Z,2.73
2019-04-20T16:59:54.073Z,2.40
2019-04-20T17:02:22.730Z,2.70
2019-04-20T17:04:54.550Z,2.60
2019-04-20T17:07:24.930Z,2.77
2019-04-20T17:09:54.336Z,2.70
2019-04-20T17:12:23.891Z,2.83
2019-04-20T17:14:53.688Z,2.87
2019-04-20T17:17:23.468Z,2.63
2019-04-20T17:19:53.469Z,2.80
2019-04-20T17:22:23.421Z,2.67
2019-04-20T17:24:53.776Z,2.53
2019-04-20T17:27:28.776Z,2.67
2019-04-20T17:30:03.206Z,2.40
2019-04-20T17:32:37.080Z,2.70
2019-04-20T17:35:18.037Z,2.40
2019-04-20T17:37:41.683Z,2.80
2019-04-20T17:40:30.014Z,2.30
2019-04-20T17:42:50.801Z,2.40
2019-04-20T17:45:19.292Z,2.37
2019-04-20T17:47:58.504Z,2.53
2019-04-20T17:50:32.854Z,2.30
2019-04-20T17:53:02.998Z,2.67
2019-04-20T17:55:34.330Z,2.30
2019-04-20T17:57:57.410Z,2.80
2019-04-20T18:00:35.159Z,2.97
2019-04-20T18:03:17.581Z,2.27
2019-04-20T18:05:54.677Z,2.50
2019-04-20T18:08:20.504Z,2.30
2019-04-20T18:10:47.251Z,2.27
2019-04-20T18:13:12.122Z,2.40
2019-04-20T18:15:51.809Z,2.60
2019-04-20T18:18:42.060Z,2.50
2019-04-20T18:21:13.186Z,2.23
2019-04-20T18:23:46.281Z,2.27
2019-04-20T18:26:35.789Z,2.53
2019-04-20T18:29:05.171Z,4.80
2019-04-20T18:31:15.524Z,2.50
2019-04-20T18:33:46.530Z,2.57
2019-04-20T18:36:23.403Z,2.80
2019-04-20T18:38:54.051Z,2.20
2019-04-20T18:41:30.785Z,2.60
2019-04-20T18:43:52.308Z,2.47
2019-04-20T18:46:34.653Z,2.70
2019-04-20T18:49:08.692Z,2.40
2019-04-20T18:51:19.663Z,2.73
2019-04-20T18:53:50.466Z,2.70
2019-04-20T18:56:25.654Z,2.80
2019-04-20T18:58:51.184Z,3.07
2019-04-20T19:01:29.406Z,2.60
2019-04-20T19:03:52.233Z,2.97
2019-04-20T19:06:21.514Z,2.70
2019-04-20T19:08:52.522Z,2.33
2019-04-20T19:11:24.135Z,2.73
2019-04-20T19:13:56.492Z,2.80
2019-04-20T19:16:33.429Z,2.50
2019-04-20T19:19:09.902Z,2.80
2019-04-20T19:21:31.087Z,2.70
2019-04-20T19:24:07.696Z,2.37
2019-04-20T19:26:32.548Z,2.40
2019-04-20T19:29:12.037Z,2.90
2019-04-20T19:31:45.834Z,2.50
2019-04-20T19:34:26.443Z,2.77
2019-04-20T19:36:43.635Z,2.77
2019-04-20T19:39:23.485Z,2.87
2019-04-20T19:41:49.478Z,2.67
2019-04-20T19:44:18.677Z,2.60
2019-04-20T19:47:01.385Z,2.53
2019-04-20T19:49:21.949Z,3.00
2019-04-20T19:52:13.281Z,2.80
2019-04-20T19:54:35.528Z,2.63
2019-04-20T19:56:58.280Z,3.00
2019-04-20T19:59:26.325Z,4.37
2019-04-20T20:01:47.673Z,5.07
2019-04-20T20:04:19.864Z,3.57
2019-04-20T20:06:55.868Z,3.20
2019-04-20T20:09:20.021Z,2.90
2019-04-20T20:11:49.977Z,2.80
2019-04-20T20:14:32.037Z,3.30
2019-04-20T20:17:08.955Z,3.67
2019-04-20T20:19:54.539Z,3.53
2019-04-20T20:22:13.175Z,2.70
2019-04-20T20:24:33.034Z,3.20
2019-04-20T20:27:07.920Z,3.20
2019-04-20T20:29:38.360Z,2.90
2019-04-20T20:32:17.817Z,2.90
2019-04-20T20:34:42.209Z,2.90
2019-04-20T20:37:11.097Z,3.10
2019-04-20T20:39:41.948Z,2.50
2019-04-20T20:42:26.059Z,3.40
2019-04-20T20:44:48.795Z,3.00
2019-04-20T20:47:36.866Z,3.07
2019-04-20T20:50:08.823Z,2.73
2019-04-20T20:52:27.307Z,3.07
2019-04-20T20:54:56.487Z,3.07
2019-04-20T20:57:18.814Z,3.13
2019-04-20T20:59:54.773Z,3.07
2019-04-20T21:02:24.193Z,3.73
2019-04-20T21:04:47.891Z,3.73
2019-04-20T21:07:18.190Z,2.97
2019-04-20T21:09:48.327Z,3.00
2019-04-20T21:12:21.286Z,3.60
2019-04-20T21:14:49.179Z,3.50
2019-04-20T21:17:22.261Z,3.37
2019-04-20T21:20:06.296Z,4.40
2019-04-20T21:22:43.769Z,4.00
2019-04-20T21:24:54.927Z,4.90
2019-04-20T21:27:23.601Z,4.73
2019-04-20T21:29:56.465Z,4.47
2019-04-20T21:32:23.798Z,5.13
2019-04-20T21:35:00.338Z,4.93
2019-04-20T21:37:26.973Z,4.83
2019-04-20T21:39:59.141Z,4.73
2019-04-20T21:42:28.158Z,4.67
2019-04-20T21:45:24.907Z,4.20
2019-04-20T21:47:50.211Z,4.33
2019-04-20T21:50:34.442Z,4.53
2019-04-20T21:52:58.569Z,4.17
2019-04-20T21:55:25.818Z,4.00
2019-04-20T21:57:59.977Z,4.27
2019-04-20T22:00:47.637Z,4.30
2019-04-20T22:03:16.824Z,4.73
2019-04-20T22:05:46.472Z,4.87
2019-04-20T22:08:17.480Z,5.03
2019-04-20T22:10:47.062Z,5.20
2019-04-20T22:13:19.464Z,5.20
2019-04-20T22:15:56.004Z,4.80
2019-04-20T22:18:21.256Z,4.80
2019-04-20T22:20:57.874Z,4.67
2019-04-20T22:23:36.643Z,4.90
2019-04-20T22:26:05.156Z,4.83
2019-04-20T22:28:20.370Z,4.87
2019-04-20T22:30:50.358Z,4.70
2019-04-20T22:33:23.595Z,5.40
2019-04-20T22:35:55.541Z,4.50
2019-04-20T22:38:36.848Z,4.60
2019-04-20T22:41:11.979Z,4.73
2019-04-20T22:43:37.260Z,4.27
2019-04-20T22:46:05.499Z,4.00
2019-04-20T22:48:40.538Z,4.77
2019-04-20T22:51:19.585Z,4.27
2019-04-20T22:53:48.795Z,3.33
2019-04-20T22:56:24.319Z,4.10
2019-04-20T22:58:48.844Z,4.20
2019-04-20T23:01:20.354Z,4.80
2019-04-20T23:03:38.944Z,4.43
2019-04-20T23:06:09.036Z,4.23
2019-04-20T23:08:38.284Z,4.60
2019-04-20T23:11:14.173Z,4.50
2019-04-20T23:13:42.857Z,4.10
2019-04-20T23:16:09.301Z,5.00
2019-04-20T23:18:38.431Z,4.50
2019-04-20T23:21:48.630Z,4.57
2019-04-20T23:24:15.320Z,4.57
2019-04-20T23:26:47.192Z,3.97
2019-04-20T23:29:17.437Z,4.80
2019-04-20T23:31:53.232Z,4.17
2019-04-20T23:34:21.863Z,4.00
2019-04-20T23:36:50.303Z,4.47
2019-04-20T23:39:19.044Z,4.30
2019-04-20T23:41:53.765Z,3.90
2019-04-20T23:44:21.289Z,4.07
2019-04-20T23:46:59.326Z,4.53
2019-04-20T23:49:42.870Z,4.03
2019-04-20T23:52:26.488Z,4.33
2019-04-20T23:54:34.004Z,4.10
2019-04-20T23:57:02.042Z,4.57
2019-04-20T23:59:37.449Z,4.90
